sensor_id;sensor_type;location;lat;lon;timestamp;temperature;humidity
47779;DHT22;33538;48.432;11.350;2023-07-13T00:01:16;22.20;94.00
47779;DHT22;33538;48.432;11.350;2023-07-13T00:03:43;22.20;94.40
47779;DHT22;33538;48.432;11.350;2023-07-13T00:06:10;22.10;94.90
47779;DHT22;33538;48.432;11.350;2023-07-13T00:08:37;22.20;95.00
47779;DHT22;33538;48.432;11.350;2023-07-13T00:11:04;22.20;95.20
47779;DHT22;33538;48.432;11.350;2023-07-13T00:13:32;22.20;95.40
47779;DHT22;33538;48.432;11.350;2023-07-13T00:15:59;22.10;95.70
47779;DHT22;33538;48.432;11.350;2023-07-13T00:18:26;22.20;95.60
47779;DHT22;33538;48.432;11.350;2023-07-13T00:20:53;22.20;95.40
47779;DHT22;33538;48.432;11.350;2023-07-13T00:23:19;22.20;95.40
47779;DHT22;33538;48.432;11.350;2023-07-13T00:25:46;22.20;95.50
47779;DHT22;33538;48.432;11.350;2023-07-13T00:28:13;22.20;95.70
47779;DHT22;33538;48.432;11.350;2023-07-13T00:30:41;22.20;95.70
47779;DHT22;33538;48.432;11.350;2023-07-13T00:33:08;22.20;95.60
47779;DHT22;33538;48.432;11.350;2023-07-13T00:35:44;22.10;96.00
47779;DHT22;33538;48.432;11.350;2023-07-13T00:38:11;22.10;96.20
47779;DHT22;33538;48.432;11.350;2023-07-13T00:40:38;22.10;96.10
47779;DHT22;33538;48.432;11.350;2023-07-13T00:43:10;22.10;96.10
47779;DHT22;33538;48.432;11.350;2023-07-13T00:46:11;22.10;96.60
47779;DHT22;33538;48.432;11.350;2023-07-13T00:48:40;22.10;96.20
47779;DHT22;33538;48.432;11.350;2023-07-13T00:51:08;22.20;95.80
47779;DHT22;33538;48.432;11.350;2023-07-13T00:53:36;22.20;96.00
47779;DHT22;33538;48.432;11.350;2023-07-13T00:56:04;22.10;96.00
47779;DHT22;33538;48.432;11.350;2023-07-13T00:58:31;22.20;95.90
47779;DHT22;33538;48.432;11.350;2023-07-13T01:00:58;22.10;95.80
47779;DHT22;33538;48.432;11.350;2023-07-13T01:03:26;22.10;95.50
47779;DHT22;33538;48.432;11.350;2023-07-13T01:05:53;22.10;95.50
47779;DHT22;33538;48.432;11.350;2023-07-13T01:08:20;22.10;95.50
47779;DHT22;33538;48.432;11.350;2023-07-13T01:10:51;22.10;95.60
47779;DHT22;33538;48.432;11.350;2023-07-13T01:13:18;22.10;96.00
47779;DHT22;33538;48.432;11.350;2023-07-13T01:15:47;22.10;96.00
47779;DHT22;33538;48.432;11.350;2023-07-13T01:18:16;22.00;95.90
47779;DHT22;33538;48.432;11.350;2023-07-13T01:20:52;22.10;95.60
47779;DHT22;33538;48.432;11.350;2023-07-13T01:23:19;22.10;95.60
47779;DHT22;33538;48.432;11.350;2023-07-13T01:25:46;22.10;95.50
47779;DHT22;33538;48.432;11.350;2023-07-13T01:28:13;22.10;95.90
47779;DHT22;33538;48.432;11.350;2023-07-13T01:30:40;22.00;95.70
47779;DHT22;33538;48.432;11.350;2023-07-13T01:33:07;22.00;95.80
47779;DHT22;33538;48.432;11.350;2023-07-13T01:35:34;22.00;95.80
47779;DHT22;33538;48.432;11.350;2023-07-13T01:38:03;22.00;95.60
47779;DHT22;33538;48.432;11.350;2023-07-13T01:40:30;22.00;95.40
47779;DHT22;33538;48.432;11.350;2023-07-13T01:42:58;22.00;95.50
47779;DHT22;33538;48.432;11.350;2023-07-13T01:45:25;22.00;96.00
47779;DHT22;33538;48.432;11.350;2023-07-13T01:47:52;22.00;96.00
47779;DHT22;33538;48.432;11.350;2023-07-13T01:50:19;21.90;95.90
47779;DHT22;33538;48.432;11.350;2023-07-13T01:52:46;21.90;95.30
47779;DHT22;33538;48.432;11.350;2023-07-13T01:55:15;21.90;94.90
47779;DHT22;33538;48.432;11.350;2023-07-13T01:57:42;21.90;95.00
47779;DHT22;33538;48.432;11.350;2023-07-13T02:00:10;21.80;95.10
47779;DHT22;33538;48.432;11.350;2023-07-13T02:02:37;21.80;95.30
47779;DHT22;33538;48.432;11.350;2023-07-13T02:05:05;21.90;94.90
47779;DHT22;33538;48.432;11.350;2023-07-13T02:07:32;21.90;94.90
47779;DHT22;33538;48.432;11.350;2023-07-13T02:09:59;21.90;95.20
47779;DHT22;33538;48.432;11.350;2023-07-13T02:12:27;21.90;95.00
47779;DHT22;33538;48.432;11.350;2023-07-13T02:14:54;21.90;95.60
47779;DHT22;33538;48.432;11.350;2023-07-13T02:17:21;21.90;95.70
47779;DHT22;33538;48.432;11.350;2023-07-13T02:19:48;21.90;95.70
47779;DHT22;33538;48.432;11.350;2023-07-13T02:22:15;21.90;96.00
47779;DHT22;33538;48.432;11.350;2023-07-13T02:24:42;21.90;97.00
47779;DHT22;33538;48.432;11.350;2023-07-13T02:27:08;21.90;96.80
47779;DHT22;33538;48.432;11.350;2023-07-13T02:29:36;21.90;96.20
47779;DHT22;33538;48.432;11.350;2023-07-13T02:32:04;21.90;96.50
47779;DHT22;33538;48.432;11.350;2023-07-13T02:34:31;21.80;96.30
47779;DHT22;33538;48.432;11.350;2023-07-13T02:36:59;21.80;96.20
47779;DHT22;33538;48.432;11.350;2023-07-13T02:39:26;21.90;95.90
47779;DHT22;33538;48.432;11.350;2023-07-13T02:41:53;21.80;95.80
47779;DHT22;33538;48.432;11.350;2023-07-13T02:44:19;21.80;95.90
47779;DHT22;33538;48.432;11.350;2023-07-13T02:46:48;21.90;95.90
47779;DHT22;33538;48.432;11.350;2023-07-13T02:49:14;21.90;96.10
47779;DHT22;33538;48.432;11.350;2023-07-13T02:51:41;21.90;96.10
47779;DHT22;33538;48.432;11.350;2023-07-13T02:54:09;21.80;96.20
47779;DHT22;33538;48.432;11.350;2023-07-13T02:56:36;21.80;96.30
47779;DHT22;33538;48.432;11.350;2023-07-13T02:59:03;21.80;96.40
47779;DHT22;33538;48.432;11.350;2023-07-13T03:01:30;21.80;96.60
47779;DHT22;33538;48.432;11.350;2023-07-13T03:03:58;21.80;96.40
47779;DHT22;33538;48.432;11.350;2023-07-13T03:06:25;21.80;96.40
47779;DHT22;33538;48.432;11.350;2023-07-13T03:08:51;21.80;96.40
47779;DHT22;33538;48.432;11.350;2023-07-13T03:11:19;21.80;96.40
47779;DHT22;33538;48.432;11.350;2023-07-13T03:13:47;21.80;96.50
47779;DHT22;33538;48.432;11.350;2023-07-13T03:16:15;21.80;96.30
47779;DHT22;33538;48.432;11.350;2023-07-13T03:18:46;21.80;96.30
47779;DHT22;33538;48.432;11.350;2023-07-13T03:21:15;21.70;96.10
47779;DHT22;33538;48.432;11.350;2023-07-13T03:23:41;21.70;96.20
47779;DHT22;33538;48.432;11.350;2023-07-13T03:26:11;21.70;96.20
47779;DHT22;33538;48.432;11.350;2023-07-13T03:28:38;21.70;95.90
47779;DHT22;33538;48.432;11.350;2023-07-13T03:31:08;21.70;95.90
47779;DHT22;33538;48.432;11.350;2023-07-13T03:33:36;21.70;96.10
47779;DHT22;33538;48.432;11.350;2023-07-13T03:36:03;21.70;96.30
47779;DHT22;33538;48.432;11.350;2023-07-13T03:38:32;21.70;96.20
47779;DHT22;33538;48.432;11.350;2023-07-13T03:40:59;21.70;96.00
47779;DHT22;33538;48.432;11.350;2023-07-13T03:43:26;21.70;96.00
47779;DHT22;33538;48.432;11.350;2023-07-13T03:45:53;21.70;96.30
47779;DHT22;33538;48.432;11.350;2023-07-13T03:48:20;21.70;96.70
47779;DHT22;33538;48.432;11.350;2023-07-13T03:50:47;21.70;97.00
47779;DHT22;33538;48.432;11.350;2023-07-13T03:53:14;21.70;96.70
47779;DHT22;33538;48.432;11.350;2023-07-13T03:55:42;21.70;96.50
47779;DHT22;33538;48.432;11.350;2023-07-13T03:58:27;21.70;96.40
47779;DHT22;33538;48.432;11.350;2023-07-13T04:00:55;21.60;96.50
47779;DHT22;33538;48.432;11.350;2023-07-13T04:03:21;21.60;96.90
47779;DHT22;33538;48.432;11.350;2023-07-13T04:05:48;21.60;96.50
47779;DHT22;33538;48.432;11.350;2023-07-13T04:08:16;21.60;96.30
47779;DHT22;33538;48.432;11.350;2023-07-13T04:10:44;21.60;96.50
47779;DHT22;33538;48.432;11.350;2023-07-13T04:13:11;21.60;96.40
47779;DHT22;33538;48.432;11.350;2023-07-13T04:15:39;21.60;96.20
47779;DHT22;33538;48.432;11.350;2023-07-13T04:18:05;21.60;96.10
47779;DHT22;33538;48.432;11.350;2023-07-13T04:20:32;21.60;96.20
47779;DHT22;33538;48.432;11.350;2023-07-13T04:22:59;21.50;96.50
47779;DHT22;33538;48.432;11.350;2023-07-13T04:25:26;21.50;96.30
47779;DHT22;33538;48.432;11.350;2023-07-13T04:27:54;21.50;96.00
47779;DHT22;33538;48.432;11.350;2023-07-13T04:30:22;21.50;96.20
47779;DHT22;33538;48.432;11.350;2023-07-13T04:32:50;21.50;96.30
47779;DHT22;33538;48.432;11.350;2023-07-13T04:35:17;21.50;95.90
47779;DHT22;33538;48.432;11.350;2023-07-13T04:37:44;21.50;95.60
47779;DHT22;33538;48.432;11.350;2023-07-13T04:40:11;21.50;95.70
47779;DHT22;33538;48.432;11.350;2023-07-13T04:42:38;21.50;95.80
47779;DHT22;33538;48.432;11.350;2023-07-13T04:45:07;21.50;95.60
47779;DHT22;33538;48.432;11.350;2023-07-13T04:47:34;21.50;95.60
47779;DHT22;33538;48.432;11.350;2023-07-13T04:50:01;21.50;95.60
47779;DHT22;33538;48.432;11.350;2023-07-13T04:52:28;21.50;95.30
47779;DHT22;33538;48.432;11.350;2023-07-13T04:54:55;21.50;95.40
47779;DHT22;33538;48.432;11.350;2023-07-13T04:57:21;21.50;95.30
47779;DHT22;33538;48.432;11.350;2023-07-13T04:59:48;21.50;95.20
47779;DHT22;33538;48.432;11.350;2023-07-13T05:02:20;21.50;95.20
47779;DHT22;33538;48.432;11.350;2023-07-13T05:04:49;21.40;95.10
47779;DHT22;33538;48.432;11.350;2023-07-13T05:07:17;21.40;95.20
47779;DHT22;33538;48.432;11.350;2023-07-13T05:09:47;21.40;95.10
47779;DHT22;33538;48.432;11.350;2023-07-13T05:12:15;21.40;95.20
47779;DHT22;33538;48.432;11.350;2023-07-13T05:14:42;21.20;97.50
47779;DHT22;33538;48.432;11.350;2023-07-13T05:17:10;21.10;98.20
47779;DHT22;33538;48.432;11.350;2023-07-13T05:19:39;21.20;97.80
47779;DHT22;33538;48.432;11.350;2023-07-13T05:22:06;21.30;97.40
47779;DHT22;33538;48.432;11.350;2023-07-13T05:24:34;21.30;97.10
47779;DHT22;33538;48.432;11.350;2023-07-13T05:27:01;21.30;96.70
47779;DHT22;33538;48.432;11.350;2023-07-13T05:29:28;21.20;96.70
47779;DHT22;33538;48.432;11.350;2023-07-13T05:31:55;21.30;96.80
47779;DHT22;33538;48.432;11.350;2023-07-13T05:34:22;21.20;97.10
47779;DHT22;33538;48.432;11.350;2023-07-13T05:36:50;21.20;96.90
47779;DHT22;33538;48.432;11.350;2023-07-13T05:39:17;21.20;96.60
47779;DHT22;33538;48.432;11.350;2023-07-13T05:41:44;21.30;96.60
47779;DHT22;33538;48.432;11.350;2023-07-13T05:44:10;21.20;96.70
47779;DHT22;33538;48.432;11.350;2023-07-13T05:46:37;21.30;96.60
47779;DHT22;33538;48.432;11.350;2023-07-13T05:49:04;21.30;96.60
47779;DHT22;33538;48.432;11.350;2023-07-13T05:51:31;21.30;96.40
47779;DHT22;33538;48.432;11.350;2023-07-13T05:53:59;21.30;96.70
47779;DHT22;33538;48.432;11.350;2023-07-13T05:56:26;21.30;96.70
47779;DHT22;33538;48.432;11.350;2023-07-13T05:58:53;21.30;96.40
47779;DHT22;33538;48.432;11.350;2023-07-13T06:01:19;21.30;96.30
47779;DHT22;33538;48.432;11.350;2023-07-13T06:03:46;21.30;96.20
47779;DHT22;33538;48.432;11.350;2023-07-13T06:06:15;21.30;95.80
47779;DHT22;33538;48.432;11.350;2023-07-13T06:08:42;21.30;95.80
47779;DHT22;33538;48.432;11.350;2023-07-13T06:11:14;21.30;95.90
47779;DHT22;33538;48.432;11.350;2023-07-13T06:13:42;21.30;95.80
47779;DHT22;33538;48.432;11.350;2023-07-13T06:16:09;21.30;95.70
47779;DHT22;33538;48.432;11.350;2023-07-13T06:18:37;21.30;95.70
47779;DHT22;33538;48.432;11.350;2023-07-13T06:21:08;21.30;95.70
47779;DHT22;33538;48.432;11.350;2023-07-13T06:23:35;21.40;95.90
47779;DHT22;33538;48.432;11.350;2023-07-13T06:26:02;21.40;95.70
47779;DHT22;33538;48.432;11.350;2023-07-13T06:28:31;21.40;95.20
47779;DHT22;33538;48.432;11.350;2023-07-13T06:30:58;21.40;94.90
47779;DHT22;33538;48.432;11.350;2023-07-13T06:33:25;21.40;94.20
47779;DHT22;33538;48.432;11.350;2023-07-13T06:35:52;21.40;94.20
47779;DHT22;33538;48.432;11.350;2023-07-13T06:38:19;21.50;94.10
47779;DHT22;33538;48.432;11.350;2023-07-13T06:40:46;21.40;94.50
47779;DHT22;33538;48.432;11.350;2023-07-13T06:43:13;21.50;94.40
47779;DHT22;33538;48.432;11.350;2023-07-13T06:45:44;21.50;93.90
47779;DHT22;33538;48.432;11.350;2023-07-13T06:48:11;21.50;94.00
47779;DHT22;33538;48.432;11.350;2023-07-13T06:50:38;21.50;93.90
47779;DHT22;33538;48.432;11.350;2023-07-13T06:53:05;21.50;93.80
47779;DHT22;33538;48.432;11.350;2023-07-13T06:55:31;21.60;93.90
47779;DHT22;33538;48.432;11.350;2023-07-13T06:57:58;21.50;94.00
47779;DHT22;33538;48.432;11.350;2023-07-13T07:00:25;21.50;93.70
47779;DHT22;33538;48.432;11.350;2023-07-13T07:02:53;21.50;93.50
47779;DHT22;33538;48.432;11.350;2023-07-13T07:05:20;21.50;93.70
47779;DHT22;33538;48.432;11.350;2023-07-13T07:07:47;21.60;93.30
47779;DHT22;33538;48.432;11.350;2023-07-13T07:10:14;21.60;93.20
47779;DHT22;33538;48.432;11.350;2023-07-13T07:12:40;21.60;92.90
47779;DHT22;33538;48.432;11.350;2023-07-13T07:15:08;21.50;92.60
47779;DHT22;33538;48.432;11.350;2023-07-13T07:17:35;21.50;92.40
47779;DHT22;33538;48.432;11.350;2023-07-13T07:20:04;21.50;92.30
47779;DHT22;33538;48.432;11.350;2023-07-13T07:22:31;21.50;92.20
47779;DHT22;33538;48.432;11.350;2023-07-13T07:24:58;21.50;92.20
47779;DHT22;33538;48.432;11.350;2023-07-13T07:27:25;21.50;92.20
47779;DHT22;33538;48.432;11.350;2023-07-13T07:29:55;21.50;92.10
47779;DHT22;33538;48.432;11.350;2023-07-13T07:32:42;21.50;92.40
47779;DHT22;33538;48.432;11.350;2023-07-13T07:35:24;21.40;92.40
47779;DHT22;33538;48.432;11.350;2023-07-13T07:37:51;21.50;92.30
47779;DHT22;33538;48.432;11.350;2023-07-13T07:40:18;21.50;92.10
47779;DHT22;33538;48.432;11.350;2023-07-13T07:42:48;21.50;91.90
47779;DHT22;33538;48.432;11.350;2023-07-13T07:45:15;21.50;91.90
47779;DHT22;33538;48.432;11.350;2023-07-13T07:47:41;21.50;91.90
47779;DHT22;33538;48.432;11.350;2023-07-13T07:50:09;21.50;91.70
47779;DHT22;33538;48.432;11.350;2023-07-13T07:52:37;21.50;91.60
47779;DHT22;33538;48.432;11.350;2023-07-13T07:55:05;21.50;91.60
47779;DHT22;33538;48.432;11.350;2023-07-13T07:57:35;21.50;91.70
47779;DHT22;33538;48.432;11.350;2023-07-13T08:00:06;21.50;91.80
47779;DHT22;33538;48.432;11.350;2023-07-13T08:02:36;21.50;91.90
47779;DHT22;33538;48.432;11.350;2023-07-13T08:05:06;21.50;91.70
47779;DHT22;33538;48.432;11.350;2023-07-13T08:07:38;21.50;91.50
47779;DHT22;33538;48.432;11.350;2023-07-13T08:10:07;21.50;91.40
47779;DHT22;33538;48.432;11.350;2023-07-13T08:12:34;21.50;91.40
47779;DHT22;33538;48.432;11.350;2023-07-13T08:15:05;21.50;91.70
47779;DHT22;33538;48.432;11.350;2023-07-13T08:17:33;21.50;91.60
47779;DHT22;33538;48.432;11.350;2023-07-13T08:20:00;21.60;91.50
47779;DHT22;33538;48.432;11.350;2023-07-13T08:22:26;21.60;91.70
47779;DHT22;33538;48.432;11.350;2023-07-13T08:24:55;21.70;91.40
47779;DHT22;33538;48.432;11.350;2023-07-13T08:27:22;21.70;90.90
47779;DHT22;33538;48.432;11.350;2023-07-13T08:29:49;21.70;90.50
47779;DHT22;33538;48.432;11.350;2023-07-13T08:32:19;21.70;90.30
47779;DHT22;33538;48.432;11.350;2023-07-13T08:34:47;21.80;90.00
47779;DHT22;33538;48.432;11.350;2023-07-13T08:37:13;21.80;89.00
47779;DHT22;33538;48.432;11.350;2023-07-13T08:39:40;21.80;88.50
47779;DHT22;33538;48.432;11.350;2023-07-13T08:42:14;21.80;88.40
47779;DHT22;33538;48.432;11.350;2023-07-13T08:44:50;21.80;88.60
47779;DHT22;33538;48.432;11.350;2023-07-13T08:47:20;21.80;88.10
47779;DHT22;33538;48.432;11.350;2023-07-13T08:49:48;21.80;88.20
47779;DHT22;33538;48.432;11.350;2023-07-13T08:52:21;21.80;88.00
47779;DHT22;33538;48.432;11.350;2023-07-13T08:54:54;21.80;87.90
47779;DHT22;33538;48.432;11.350;2023-07-13T08:57:27;21.90;87.70
47779;DHT22;33538;48.432;11.350;2023-07-13T08:59:57;21.90;87.40
47779;DHT22;33538;48.432;11.350;2023-07-13T09:02:27;21.90;87.20
47779;DHT22;33538;48.432;11.350;2023-07-13T09:04:57;21.90;87.00
47779;DHT22;33538;48.432;11.350;2023-07-13T09:07:36;21.90;87.40
47779;DHT22;33538;48.432;11.350;2023-07-13T09:10:14;21.90;87.70
47779;DHT22;33538;48.432;11.350;2023-07-13T09:12:53;21.90;87.40
47779;DHT22;33538;48.432;11.350;2023-07-13T09:15:27;22.00;87.40
47779;DHT22;33538;48.432;11.350;2023-07-13T09:17:58;22.00;87.20
47779;DHT22;33538;48.432;11.350;2023-07-13T09:20:30;21.90;86.80
47779;DHT22;33538;48.432;11.350;2023-07-13T09:23:00;22.00;86.60
47779;DHT22;33538;48.432;11.350;2023-07-13T09:25:30;22.00;85.60
47779;DHT22;33538;48.432;11.350;2023-07-13T09:28:05;22.00;85.40
47779;DHT22;33538;48.432;11.350;2023-07-13T09:30:42;22.00;85.30
47779;DHT22;33538;48.432;11.350;2023-07-13T09:33:10;22.00;85.30
47779;DHT22;33538;48.432;11.350;2023-07-13T09:35:37;22.00;84.80
47779;DHT22;33538;48.432;11.350;2023-07-13T09:38:11;22.10;84.60
47779;DHT22;33538;48.432;11.350;2023-07-13T09:43:26;22.10;84.10
47779;DHT22;33538;48.432;11.350;2023-07-13T09:45:53;22.10;84.00
47779;DHT22;33538;48.432;11.350;2023-07-13T09:48:20;22.10;84.20
47779;DHT22;33538;48.432;11.350;2023-07-13T09:50:47;22.10;84.10
47779;DHT22;33538;48.432;11.350;2023-07-13T09:53:15;22.10;84.00
47779;DHT22;33538;48.432;11.350;2023-07-13T09:55:44;22.20;83.70
47779;DHT22;33538;48.432;11.350;2023-07-13T09:58:13;22.20;83.60
47779;DHT22;33538;48.432;11.350;2023-07-13T10:00:43;22.20;83.50
47779;DHT22;33538;48.432;11.350;2023-07-13T10:03:21;22.20;83.50
47779;DHT22;33538;48.432;11.350;2023-07-13T10:05:50;22.20;83.60
47779;DHT22;33538;48.432;11.350;2023-07-13T10:08:19;22.30;83.70
47779;DHT22;33538;48.432;11.350;2023-07-13T10:10:52;22.30;83.70
47779;DHT22;33538;48.432;11.350;2023-07-13T10:13:41;22.30;83.60
47779;DHT22;33538;48.432;11.350;2023-07-13T10:16:10;22.30;82.80
47779;DHT22;33538;48.432;11.350;2023-07-13T10:18:43;22.40;82.10
47779;DHT22;33538;48.432;11.350;2023-07-13T10:21:12;22.40;82.40
47779;DHT22;33538;48.432;11.350;2023-07-13T10:24:05;22.30;82.30
47779;DHT22;33538;48.432;11.350;2023-07-13T10:26:34;22.40;82.40
47779;DHT22;33538;48.432;11.350;2023-07-13T10:29:04;22.40;82.50
47779;DHT22;33538;48.432;11.350;2023-07-13T10:31:34;22.40;82.60
47779;DHT22;33538;48.432;11.350;2023-07-13T10:34:03;22.40;82.70
47779;DHT22;33538;48.432;11.350;2023-07-13T10:36:33;22.50;82.80
47779;DHT22;33538;48.432;11.350;2023-07-13T10:39:04;22.50;81.40
47779;DHT22;33538;48.432;11.350;2023-07-13T10:41:35;22.50;82.20
47779;DHT22;33538;48.432;11.350;2023-07-13T10:44:04;22.50;82.50
47779;DHT22;33538;48.432;11.350;2023-07-13T10:46:34;22.60;82.70
47779;DHT22;33538;48.432;11.350;2023-07-13T10:49:05;22.60;82.50
47779;DHT22;33538;48.432;11.350;2023-07-13T10:51:33;22.60;82.60
47779;DHT22;33538;48.432;11.350;2023-07-13T10:54:15;22.60;82.50
47779;DHT22;33538;48.432;11.350;2023-07-13T10:56:48;22.60;82.40
47779;DHT22;33538;48.432;11.350;2023-07-13T10:59:20;22.60;82.50
47779;DHT22;33538;48.432;11.350;2023-07-13T11:01:55;22.60;82.30
47779;DHT22;33538;48.432;11.350;2023-07-13T11:04:24;22.70;81.80
47779;DHT22;33538;48.432;11.350;2023-07-13T11:06:56;22.70;81.70
47779;DHT22;33538;48.432;11.350;2023-07-13T11:09:38;22.70;81.30
47779;DHT22;33538;48.432;11.350;2023-07-13T11:12:10;22.70;81.30
47779;DHT22;33538;48.432;11.350;2023-07-13T11:15:06;22.70;80.80
47779;DHT22;33538;48.432;11.350;2023-07-13T11:17:47;22.70;80.80
47779;DHT22;33538;48.432;11.350;2023-07-13T11:20:30;22.80;80.90
47779;DHT22;33538;48.432;11.350;2023-07-13T11:23:18;22.70;80.80
47779;DHT22;33538;48.432;11.350;2023-07-13T11:25:46;22.80;80.90
47779;DHT22;33538;48.432;11.350;2023-07-13T11:28:24;22.80;80.90
47779;DHT22;33538;48.432;11.350;2023-07-13T11:31:13;22.80;80.90
47779;DHT22;33538;48.432;11.350;2023-07-13T11:33:59;22.80;80.80
47779;DHT22;33538;48.432;11.350;2023-07-13T11:36:38;22.80;80.80
47779;DHT22;33538;48.432;11.350;2023-07-13T11:39:16;22.80;80.80
47779;DHT22;33538;48.432;11.350;2023-07-13T11:41:45;22.80;80.70
47779;DHT22;33538;48.432;11.350;2023-07-13T11:44:17;22.90;80.80
47779;DHT22;33538;48.432;11.350;2023-07-13T11:46:46;22.90;80.40
47779;DHT22;33538;48.432;11.350;2023-07-13T11:49:17;22.90;78.70
47779;DHT22;33538;48.432;11.350;2023-07-13T11:51:44;23.00;79.40
47779;DHT22;33538;48.432;11.350;2023-07-13T11:54:24;22.90;79.40
47779;DHT22;33538;48.432;11.350;2023-07-13T11:56:51;22.90;79.50
47779;DHT22;33538;48.432;11.350;2023-07-13T11:59:18;23.00;79.60
47779;DHT22;33538;48.432;11.350;2023-07-13T12:01:49;23.00;77.60
47779;DHT22;33538;48.432;11.350;2023-07-13T12:04:23;23.00;77.90
47779;DHT22;33538;48.432;11.350;2023-07-13T12:06:56;23.00;78.30
47779;DHT22;33538;48.432;11.350;2023-07-13T12:09:25;23.00;78.40
47779;DHT22;33538;48.432;11.350;2023-07-13T12:11:52;23.10;78.60
47779;DHT22;33538;48.432;11.350;2023-07-13T12:14:19;23.10;78.50
47779;DHT22;33538;48.432;11.350;2023-07-13T12:16:47;23.10;78.60
47779;DHT22;33538;48.432;11.350;2023-07-13T12:19:18;23.10;78.80
47779;DHT22;33538;48.432;11.350;2023-07-13T12:21:48;23.10;78.90
47779;DHT22;33538;48.432;11.350;2023-07-13T12:24:16;23.10;79.00
47779;DHT22;33538;48.432;11.350;2023-07-13T12:26:44;23.20;79.20
47779;DHT22;33538;48.432;11.350;2023-07-13T12:29:15;23.20;79.10
47779;DHT22;33538;48.432;11.350;2023-07-13T12:31:45;23.20;78.90
47779;DHT22;33538;48.432;11.350;2023-07-13T12:34:13;23.20;78.90
47779;DHT22;33538;48.432;11.350;2023-07-13T12:36:47;23.20;79.10
47779;DHT22;33538;48.432;11.350;2023-07-13T12:39:16;23.20;79.30
47779;DHT22;33538;48.432;11.350;2023-07-13T12:41:43;23.20;79.40
47779;DHT22;33538;48.432;11.350;2023-07-13T12:44:12;23.20;78.70
47779;DHT22;33538;48.432;11.350;2023-07-13T12:46:41;23.30;76.80
47779;DHT22;33538;48.432;11.350;2023-07-13T12:49:23;23.30;77.10
47779;DHT22;33538;48.432;11.350;2023-07-13T12:51:56;23.30;77.70
47779;DHT22;33538;48.432;11.350;2023-07-13T12:54:23;23.30;78.10
47779;DHT22;33538;48.432;11.350;2023-07-13T12:56:51;23.30;78.30
47779;DHT22;33538;48.432;11.350;2023-07-13T13:02:22;23.70;72.10
47779;DHT22;33538;48.432;11.350;2023-07-13T13:04:52;23.80;74.00
47779;DHT22;33538;48.432;11.350;2023-07-13T13:07:19;23.90;71.30
47779;DHT22;33538;48.432;11.350;2023-07-13T13:09:46;24.00;68.80
47779;DHT22;33538;48.432;11.350;2023-07-13T13:12:13;23.90;70.50
47779;DHT22;33538;48.432;11.350;2023-07-13T13:14:41;23.80;71.90
47779;DHT22;33538;48.432;11.350;2023-07-13T13:17:18;23.70;72.90
47779;DHT22;33538;48.432;11.350;2023-07-13T13:19:46;23.60;73.80
47779;DHT22;33538;48.432;11.350;2023-07-13T13:22:13;23.60;74.30
47779;DHT22;33538;48.432;11.350;2023-07-13T13:24:39;23.60;74.80
47779;DHT22;33538;48.432;11.350;2023-07-13T13:27:13;23.60;75.10
47779;DHT22;33538;48.432;11.350;2023-07-13T13:29:41;23.60;75.30
47779;DHT22;33538;48.432;11.350;2023-07-13T13:32:10;23.60;75.00
47779;DHT22;33538;48.432;11.350;2023-07-13T13:34:40;23.60;74.80
47779;DHT22;33538;48.432;11.350;2023-07-13T13:37:16;23.60;74.90
47779;DHT22;33538;48.432;11.350;2023-07-13T13:39:44;23.60;75.10
47779;DHT22;33538;48.432;11.350;2023-07-13T13:42:28;23.60;75.20
47779;DHT22;33538;48.432;11.350;2023-07-13T13:44:55;23.60;75.30
47779;DHT22;33538;48.432;11.350;2023-07-13T13:47:29;23.60;74.60
47779;DHT22;33538;48.432;11.350;2023-07-13T13:49:58;23.60;74.10
47779;DHT22;33538;48.432;11.350;2023-07-13T13:52:25;23.60;74.40
47779;DHT22;33538;48.432;11.350;2023-07-13T13:54:52;23.60;74.60
47779;DHT22;33538;48.432;11.350;2023-07-13T13:57:19;23.60;73.90
47779;DHT22;33538;48.432;11.350;2023-07-13T13:59:45;23.60;74.00
47779;DHT22;33538;48.432;11.350;2023-07-13T14:02:22;23.60;73.90
47779;DHT22;33538;48.432;11.350;2023-07-13T14:04:53;23.60;73.50
47779;DHT22;33538;48.432;11.350;2023-07-13T14:07:22;23.60;74.00
47779;DHT22;33538;48.432;11.350;2023-07-13T14:09:49;23.60;74.10
47779;DHT22;33538;48.432;11.350;2023-07-13T14:12:16;23.60;74.20
47779;DHT22;33538;48.432;11.350;2023-07-13T14:14:42;23.60;74.50
47779;DHT22;33538;48.432;11.350;2023-07-13T14:17:19;23.60;74.80
47779;DHT22;33538;48.432;11.350;2023-07-13T14:19:46;23.60;74.90
47779;DHT22;33538;48.432;11.350;2023-07-13T14:22:13;23.60;74.90
47779;DHT22;33538;48.432;11.350;2023-07-13T14:24:41;23.70;75.10
47779;DHT22;33538;48.432;11.350;2023-07-13T14:27:09;23.70;75.00
47779;DHT22;33538;48.432;11.350;2023-07-13T14:29:35;23.70;74.90
47779;DHT22;33538;48.432;11.350;2023-07-13T14:32:03;23.70;74.80
47779;DHT22;33538;48.432;11.350;2023-07-13T14:34:30;23.70;74.70
47779;DHT22;33538;48.432;11.350;2023-07-13T14:36:57;23.70;74.60
47779;DHT22;33538;48.432;11.350;2023-07-13T14:39:24;23.70;74.50
47779;DHT22;33538;48.432;11.350;2023-07-13T14:41:54;23.70;74.40
47779;DHT22;33538;48.432;11.350;2023-07-13T14:44:24;23.70;74.20
47779;DHT22;33538;48.432;11.350;2023-07-13T14:46:52;23.70;74.10
47779;DHT22;33538;48.432;11.350;2023-07-13T14:49:24;23.70;74.10
47779;DHT22;33538;48.432;11.350;2023-07-13T14:51:51;23.70;74.80
47779;DHT22;33538;48.432;11.350;2023-07-13T14:54:18;23.70;73.90
47779;DHT22;33538;48.432;11.350;2023-07-13T14:56:45;23.80;73.70
47779;DHT22;33538;48.432;11.350;2023-07-13T14:59:13;23.80;73.70
47779;DHT22;33538;48.432;11.350;2023-07-13T15:01:40;23.80;73.50
47779;DHT22;33538;48.432;11.350;2023-07-13T15:04:08;23.80;73.40
47779;DHT22;33538;48.432;11.350;2023-07-13T15:06:53;23.80;73.40
47779;DHT22;33538;48.432;11.350;2023-07-13T15:09:21;23.80;73.20
47779;DHT22;33538;48.432;11.350;2023-07-13T15:11:47;23.80;73.20
47779;DHT22;33538;48.432;11.350;2023-07-13T15:14:16;23.90;73.30
47779;DHT22;33538;48.432;11.350;2023-07-13T15:16:49;23.80;73.20
47779;DHT22;33538;48.432;11.350;2023-07-13T15:19:16;23.80;73.20
47779;DHT22;33538;48.432;11.350;2023-07-13T15:21:43;23.80;73.30
47779;DHT22;33538;48.432;11.350;2023-07-13T15:24:10;23.90;73.40
47779;DHT22;33538;48.432;11.350;2023-07-13T15:26:37;23.90;73.30
47779;DHT22;33538;48.432;11.350;2023-07-13T15:29:05;23.90;73.10
47779;DHT22;33538;48.432;11.350;2023-07-13T15:31:33;23.90;73.00
47779;DHT22;33538;48.432;11.350;2023-07-13T15:34:03;23.90;72.90